Time;durP1;ratioP1;P1;durP2;ratioP2;P2;SDS_P1;SDS_P2;PMS_P1;PMS_P2;Temp;Humidity;BMP_temperature;BMP_pressure;BME280_temperature;BME280_humidity;BME280_pressure;Samples;Min_cycle;Max_cycle;Signal;HPM_P1;HPM_P2
2022/02/11 00:09:24;;;;;;;;;;;;;;;2.88;100.00;99493.34;1765651;81;20085;-66
2022/02/11 00:11:50;;;;;;;;;;;;;;;2.84;100.00;99500.38;1765548;81;20109;-67
2022/02/11 00:14:16;;;;;;;;;;;;;;;2.83;100.00;99488.44;1765610;81;20141;-67
2022/02/11 00:16:42;;;;;;;;;;;;;;;2.82;100.00;99490.34;1737584;81;21784;-67
2022/02/11 00:19:08;;;;;;;;;;;;;;;2.82;100.00;99487.62;1765564;81;20101;-67
2022/02/11 00:21:34;;;;;;;;;;;;;;;2.83;100.00;99482.48;1765544;81;20092;-67
2022/02/11 00:24:01;;;;;;;;;;;;;;;2.84;100.00;99486.00;1765588;81;20081;-67
2022/02/11 00:26:32;;;;;;;;;;;;;;;2.84;100.00;99484.11;1765589;81;20141;-67
2022/02/11 00:29:57;;;;;;;;;;;;;;;2.85;100.00;99480.31;1764640;81;21450;-67
2022/02/11 00:34:06;;;;;;;;;;;;;;;2.84;100.00;99470.55;1765592;81;20073;-67
2022/02/11 00:36:42;;;;;;;;;;;;;;;2.86;100.00;99475.70;1765367;81;20097;-67
2022/02/11 01:03:35;;;;;;;;;;;;;;;2.92;100.00;99444.78;1764438;81;20121;-67
2022/02/11 01:05:52;;;;;;;;;;;;;;;2.95;100.00;99449.12;1764030;81;20183;-67
2022/02/11 01:08:19;;;;;;;;;;;;;;;2.98;100.00;99445.88;1765142;81;21134;-67
2022/02/11 01:10:46;;;;;;;;;;;;;;;2.99;100.00;99452.13;1765361;80;20105;-67
2022/02/11 01:13:13;;;;;;;;;;;;;;;3.02;100.00;99451.59;1765187;81;20146;-67
2022/02/11 01:15:44;;;;;;;;;;;;;;;3.04;100.00;99445.89;1765187;80;20667;-67
2022/02/11 01:18:10;;;;;;;;;;;;;;;3.04;100.00;99452.67;1765226;81;20156;-68
2022/02/11 01:20:50;;;;;;;;;;;;;;;3.06;100.00;99454.58;1765373;81;21149;-67
2022/02/11 01:28:40;;;;;;;;;;;;;;;3.09;100.00;99450.78;1765374;81;20120;-66
2022/02/11 01:44:08;;;;;;;;;;;;;;;3.17;99.85;99440.77;1768059;81;20443;-66
2022/02/11 01:49:33;;;;;;;;;;;;;;;3.16;99.32;99428.28;1770658;81;20137;-66
2022/02/11 01:51:49;;;;;;;;;;;;;;;3.15;99.24;99432.08;1766816;81;20096;-67
2022/02/11 01:54:19;;;;;;;;;;;;;;;3.16;99.13;99430.19;1770801;81;20141;-69
2022/02/11 01:59:50;;;;;;;;;;;;;;;3.14;98.90;99421.50;1751803;81;21121;-68
2022/02/11 02:10:29;;;;;;;;;;;;;;;3.09;98.60;99420.14;1770420;81;20158;-66
2022/02/11 02:29:01;;;;;;;;;;;;;;;2.77;99.27;99403.57;1770349;81;20432;-66
2022/02/11 02:57:54;;;;;;;;;;;;;;;2.45;100.00;99356.33;1765232;81;20136;-67
2022/02/11 03:48:41;;;;;;;;;;;;;;;2.65;100.00;99338.77;1768128;81;20209;-66
2022/02/11 03:50:03;;;;;;;;;;;;;;;2.76;98.61;99279.14;1765408;81;20073;-66
2022/02/11 03:52:20;;;;;;;;;;;;;;;2.68;98.59;99280.49;1760638;81;20121;-67
2022/02/11 05:00:15;;;;;;;;;;;;;;;2.19;97.90;99255.26;1735001;82;20076;-69
2022/02/11 05:02:45;;;;;;;;;;;;;;;2.18;97.63;99260.41;1734348;82;20442;-68
2022/02/11 05:05:12;;;;;;;;;;;;;;;2.19;97.50;99254.45;1734808;82;20123;-67
2022/02/11 05:07:38;;;;;;;;;;;;;;;2.20;97.26;99255.53;1734721;82;21132;-65
2022/02/11 05:10:07;;;;;;;;;;;;;;;2.22;96.93;99245.78;1751109;81;20085;-66
2022/02/11 05:12:36;;;;;;;;;;;;;;;2.25;96.67;99237.13;1747118;81;20110;-66
2022/02/11 05:15:08;;;;;;;;;;;;;;;2.25;96.42;99230.35;1698113;83;20100;-66
2022/02/11 05:17:32;;;;;;;;;;;;;;;2.19;96.28;99232.23;1696966;84;20419;-67
2022/02/11 05:19:59;;;;;;;;;;;;;;;2.15;96.31;99230.33;1697273;83;21780;-67
2022/02/11 05:22:25;;;;;;;;;;;;;;;2.09;96.46;99230.86;1726827;82;20095;-65
2022/02/11 05:24:51;;;;;;;;;;;;;;;2.05;96.70;99229.77;1749389;81;20086;-65
2022/02/11 05:27:17;;;;;;;;;;;;;;;2.01;96.76;99225.16;1736965;80;20099;-65
2022/02/11 05:29:43;;;;;;;;;;;;;;;1.97;96.88;99236.52;1734938;82;20128;-65
2022/02/11 05:32:10;;;;;;;;;;;;;;;1.94;97.02;99248.42;1735407;82;21114;-65
2022/02/11 05:34:36;;;;;;;;;;;;;;;1.91;97.16;99259.78;1734681;82;20505;-65
2022/02/11 05:37:03;;;;;;;;;;;;;;;1.88;97.40;99262.48;1734995;82;20083;-67
2022/02/11 05:39:31;;;;;;;;;;;;;;;1.89;97.87;99261.94;1736147;81;20426;-69
2022/02/11 05:41:57;;;;;;;;;;;;;;;1.93;98.34;99271.97;1714607;81;20103;-69
2022/02/11 05:44:23;;;;;;;;;;;;;;;2.03;98.81;99272.55;1756947;81;21512;-69
2022/02/11 05:46:50;;;;;;;;;;;;;;;2.16;98.94;99283.41;1757684;81;20113;-71
2022/02/11 05:49:16;;;;;;;;;;;;;;;2.28;98.95;99278.03;1749672;81;20188;-70
2022/02/11 05:51:43;;;;;;;;;;;;;;;2.41;98.73;99288.05;1768972;81;20553;-69
2022/02/11 05:54:09;;;;;;;;;;;;;;;2.52;98.43;99277.50;1750896;81;20144;-69
2022/02/11 05:56:36;;;;;;;;;;;;;;;2.60;98.15;99281.03;1770226;81;21548;-68
2022/02/11 05:59:02;;;;;;;;;;;;;;;2.65;97.91;99287.27;1746732;81;20107;-69
2022/02/11 06:01:28;;;;;;;;;;;;;;;2.73;97.69;99270.20;1739081;82;20118;-69
2022/02/11 06:03:54;;;;;;;;;;;;;;;2.80;97.51;99266.12;1738618;82;20119;-70
2022/02/11 06:06:21;;;;;;;;;;;;;;;2.86;97.17;99260.17;1739865;82;20091;-70
2022/02/11 06:08:47;;;;;;;;;;;;;;;2.95;97.14;99256.60;1739729;82;21132;-71
2022/02/11 06:11:14;;;;;;;;;;;;;;;3.05;96.64;99254.97;1739701;82;20088;-69
2022/02/11 06:13:40;;;;;;;;;;;;;;;3.12;96.38;99254.95;1739575;82;20119;-69
2022/02/11 06:16:07;;;;;;;;;;;;;;;3.18;95.88;99259.83;1745368;81;20092;-70
2022/02/11 06:18:33;;;;;;;;;;;;;;;3.21;95.59;99262.00;1754257;81;20436;-71
2022/02/11 06:20:59;;;;;;;;;;;;;;;3.23;95.43;99259.28;1755753;81;21132;-72
2022/02/11 06:23:26;;;;;;;;;;;;;;;3.27;95.15;99255.47;1752192;81;20115;-72
2022/02/11 06:25:53;;;;;;;;;;;;;;;3.31;95.03;99257.91;1754499;81;20424;-72
2022/02/11 06:28:19;;;;;;;;;;;;;;;3.37;94.85;99260.06;1753939;81;20128;-72
2022/02/11 06:30:46;;;;;;;;;;;;;;;3.43;94.82;99265.75;1748516;81;20087;-66
2022/02/11 06:33:13;;;;;;;;;;;;;;;3.54;94.46;99262.70;1740492;81;21961;-68
2022/02/11 06:35:42;;;;;;;;;;;;;;;3.68;94.26;99261.57;1739771;82;20171;-67
2022/02/11 06:38:07;;;;;;;;;;;;;;;3.84;93.58;99265.04;1739882;82;20103;-67
2022/02/11 06:40:33;;;;;;;;;;;;;;;4.02;93.04;99269.03;1739692;82;20095;-67
2022/02/11 06:42:59;;;;;;;;;;;;;;;4.19;92.52;99256.69;1739853;82;20116;-69
2022/02/11 06:45:26;;;;;;;;;;;;;;;4.37;91.79;99256.58;1718218;82;21104;-68
2022/02/11 06:47:53;;;;;;;;;;;;;;;4.57;90.63;99258.34;1704142;84;20096;-67
2022/02/11 06:50:20;;;;;;;;;;;;;;;4.75;89.60;99259.55;1704580;84;20467;-63
2022/02/11 06:52:49;;;;;;;;;;;;;;;4.84;88.23;99260.55;1704062;84;20088;-64
2022/02/11 06:55:15;;;;;;;;;;;;;;;4.89;87.77;99268.13;1704045;84;20096;-66
2022/02/11 06:57:45;;;;;;;;;;;;;;;4.94;87.44;99264.00;1709660;83;21202;-67
2022/02/11 07:00:14;;;;;;;;;;;;;;;5.00;87.60;99248.45;1695664;84;20174;-70
2022/02/11 07:02:41;;;;;;;;;;;;;;;5.04;86.42;99253.58;1671755;85;20091;-66
2022/02/11 07:05:08;;;;;;;;;;;;;;;5.14;86.92;99260.84;1656612;86;20106;-67
2022/02/11 07:07:35;;;;;;;;;;;;;;;5.33;85.55;99267.70;1652634;86;20148;-68
2022/02/11 07:10:03;;;;;;;;;;;;;;;5.55;84.24;99262.56;1644521;85;20505;-66
2022/02/11 07:12:29;;;;;;;;;;;;;;;5.81;83.62;99265.22;1644085;87;20101;-70
2022/02/11 07:14:56;;;;;;;;;;;;;;;6.02;81.53;99269.09;1645838;85;20169;-69
2022/02/11 07:17:22;;;;;;;;;;;;;;;6.06;80.68;99264.13;1649130;85;20801;-70
2022/02/11 07:19:49;;;;;;;;;;;;;;;6.04;80.69;99271.78;1673146;85;20162;-73
2022/02/11 07:22:15;;;;;;;;;;;;;;;5.98;80.63;99268.05;1675987;85;21509;-72
2022/02/11 07:24:41;;;;;;;;;;;;;;;5.85;80.37;99266.27;1676340;85;20123;-74
2022/02/11 07:27:09;;;;;;;;;;;;;;;5.73;80.36;99275.98;1676740;85;20126;-69
2022/02/11 07:29:35;;;;;;;;;;;;;;;5.57;80.64;99278.88;1674333;84;20098;-72
2022/02/11 07:32:03;;;;;;;;;;;;;;;5.43;81.25;99266.23;1675045;84;20099;-69
2022/02/11 07:34:29;;;;;;;;;;;;;;;5.31;81.93;99272.88;1673423;85;21817;-69
2022/02/11 07:36:56;;;;;;;;;;;;;;;5.25;82.66;99272.67;1673232;85;20095;-68
2022/02/11 07:39:24;;;;;;;;;;;;;;;5.21;83.10;99268.89;1673711;85;32477;-74
2022/02/11 07:41:50;;;;;;;;;;;;;;;5.17;83.17;99271.96;1676443;85;20103;-73
2022/02/11 07:44:16;;;;;;;;;;;;;;;5.14;83.46;99264.37;1676548;85;20127;-73
2022/02/11 07:46:43;;;;;;;;;;;;;;;5.13;83.95;99272.27;1679534;84;21133;-73
2022/02/11 07:49:09;;;;;;;;;;;;;;;5.12;83.92;99273.37;1679540;85;20468;-75
2022/02/11 07:51:35;;;;;;;;;;;;;;;5.11;83.84;99274.46;1679808;85;20122;-72
2022/02/11 07:54:01;;;;;;;;;;;;;;;5.11;84.00;99264.94;1679564;85;20099;-70
2022/02/11 07:56:28;;;;;;;;;;;;;;;5.11;84.34;99270.38;1659282;85;20567;-69
2022/02/11 07:58:54;;;;;;;;;;;;;;;5.16;84.77;99270.88;1677947;85;21169;-72
2022/02/11 08:01:21;;;;;;;;;;;;;;;5.21;84.12;99273.53;1679138;85;20439;-70
2022/02/11 08:03:49;;;;;;;;;;;;;;;5.28;84.03;99269.92;1679956;85;20086;-72
2022/02/11 08:06:16;;;;;;;;;;;;;;;5.43;84.69;99259.43;1679628;85;20119;-71
2022/02/11 08:08:43;;;;;;;;;;;;;;;5.57;83.11;99259.81;1676586;85;21037;-71
2022/02/11 08:11:10;;;;;;;;;;;;;;;5.72;83.11;99276.53;1678228;85;21981;-75
2022/02/11 08:13:37;;;;;;;;;;;;;;;5.81;81.84;99274.76;1679507;85;20102;-75
2022/02/11 08:16:05;;;;;;;;;;;;;;;5.83;81.49;99269.02;1679594;85;20111;-75
2022/02/11 08:18:33;;;;;;;;;;;;;;;5.83;81.57;99267.11;1666926;85;20523;-76
2022/02/11 08:20:59;;;;;;;;;;;;;;;5.82;81.66;99268.76;1677219;85;20137;-73
2022/02/11 08:23:26;;;;;;;;;;;;;;;5.83;81.85;99263.57;1678379;85;21161;-69
2022/02/11 08:25:52;;;;;;;;;;;;;;;5.83;81.56;99265.74;1678670;85;20123;-75
2022/02/11 08:28:19;;;;;;;;;;;;;;;5.79;81.10;99261.17;1688408;84;20160;-68
2022/02/11 08:30:49;;;;;;;;;;;;;;;5.76;81.38;99274.85;1673612;85;20846;-66
2022/02/11 08:33:17;;;;;;;;;;;;;;;5.76;81.89;99274.85;1655301;85;20157;-68
2022/02/11 08:35:49;;;;;;;;;;;;;;;5.80;82.10;99278.58;1663188;84;21124;-87
2022/02/11 08:38:15;;;;;;;;;;;;;;;5.89;81.56;99267.89;1664936;85;20168;-83
2022/02/11 08:40:41;;;;;;;;;;;;;;;6.02;81.54;99275.91;1663058;85;20460;-74
2022/02/11 08:43:07;;;;;;;;;;;;;;;6.13;80.88;99284.20;1663223;85;20413;-73
2022/02/11 08:45:37;;;;;;;;;;;;;;;6.18;80.71;99287.68;1683424;84;20097;-75
2022/02/11 08:48:02;;;;;;;;;;;;;;;6.24;80.84;99287.06;1686486;83;21179;-75
2022/02/11 08:50:29;;;;;;;;;;;;;;;6.25;80.19;99284.04;1666601;85;20122;-77
2022/02/11 08:52:56;;;;;;;;;;;;;;;6.26;80.79;99294.39;1679810;84;20118;-85
2022/02/11 08:55:23;;;;;;;;;;;;;;;6.20;80.08;99296.38;1682664;84;20088;-78
2022/02/11 08:57:52;;;;;;;;;;;;;;;6.13;80.46;99297.28;1676530;85;20098;-83
2022/02/11 09:00:19;;;;;;;;;;;;;;;6.10;80.49;99297.05;1676617;85;21232;-71
2022/02/11 09:02:46;;;;;;;;;;;;;;;6.10;81.62;99301.95;1677125;84;20437;-87
2022/02/11 09:05:12;;;;;;;;;;;;;;;6.15;81.80;99305.98;1685576;83;20099;-78
2022/02/11 09:07:38;;;;;;;;;;;;;;;6.20;81.21;99305.91;1686650;84;20414;-81
2022/02/11 09:10:07;;;;;;;;;;;;;;;6.21;81.67;99304.00;1668513;85;20435;-71
2022/02/11 09:12:34;;;;;;;;;;;;;;;6.22;81.56;99306.44;1657003;85;21100;-67
2022/02/11 09:15:04;;;;;;;;;;;;;;;6.20;81.04;99301.02;1661195;85;20092;-73
2022/02/11 09:17:31;;;;;;;;;;;;;;;6.12;81.33;99309.29;1639939;86;20466;-77
2022/02/11 09:19:58;;;;;;;;;;;;;;;6.08;81.97;99307.44;1660168;85;20178;-66
2022/02/11 09:22:24;;;;;;;;;;;;;;;6.08;82.44;99304.71;1655646;85;20209;-75
2022/02/11 09:24:53;;;;;;;;;;;;;;;6.07;82.44;99303.09;1648063;87;21068;-72
2022/02/11 09:27:19;;;;;;;;;;;;;;;6.08;82.41;99309.61;1648750;87;20149;-75
2022/02/11 09:29:45;;;;;;;;;;;;;;;6.05;82.73;99314.83;1647718;87;20474;-79
2022/02/11 09:32:12;;;;;;;;;;;;;;;6.00;83.35;99311.62;1664368;85;21022;-73
2022/02/11 09:34:39;;;;;;;;;;;;;;;5.99;83.23;99301.82;1658524;85;20144;-72
2022/02/11 09:37:05;;;;;;;;;;;;;;;5.99;83.47;99296.92;1648717;87;22170;-79
2022/02/11 09:39:32;;;;;;;;;;;;;;;6.03;83.78;99299.33;1675200;85;20116;-74
2022/02/11 09:41:58;;;;;;;;;;;;;;;6.07;83.49;99303.09;1671624;84;20125;-71
2022/02/11 09:44:25;;;;;;;;;;;;;;;6.08;83.15;99301.44;1664390;85;20091;-74
2022/02/11 09:46:52;;;;;;;;;;;;;;;6.08;83.39;99304.71;1678990;84;20090;-69
2022/02/11 09:49:18;;;;;;;;;;;;;;;6.08;84.03;99304.71;1696217;83;21473;-70
2022/02/11 09:51:46;;;;;;;;;;;;;;;6.09;83.77;99307.15;1714315;83;20105;-71
2022/02/11 09:54:19;;;;;;;;;;;;;;;6.08;83.67;99316.42;1718145;83;20085;-69
2022/02/11 09:56:46;;;;;;;;;;;;;;;6.07;83.67;99314.80;1700049;83;20123;-73
2022/02/11 09:59:12;;;;;;;;;;;;;;;6.09;85.02;99313.14;1705614;83;20088;-72
2022/02/11 10:01:42;;;;;;;;;;;;;;;6.10;84.14;99310.69;1701146;83;21561;-71
2022/02/11 10:04:13;;;;;;;;;;;;;;;6.08;84.15;99323.79;1701113;83;20530;-70
2022/02/11 10:06:45;;;;;;;;;;;;;;;6.06;84.52;99330.08;1702392;83;20075;-72
2022/02/11 10:09:11;;;;;;;;;;;;;;;6.04;84.89;99318.66;1704573;83;20145;-72
2022/02/11 10:11:37;;;;;;;;;;;;;;;6.00;84.74;99330.69;1672441;83;20137;-74
2022/02/11 10:14:24;;;;;;;;;;;;;;;5.96;84.95;99327.73;1703385;83;21511;-74
2022/02/11 10:16:54;;;;;;;;;;;;;;;5.95;85.29;99328.84;1701320;83;20189;-69
2022/02/11 10:19:44;;;;;;;;;;;;;;;5.93;85.54;99337.04;1702855;83;20445;-71
2022/02/11 10:22:18;;;;;;;;;;;;;;;5.92;85.44;99339.50;1687049;82;20176;-73
2022/02/11 10:24:44;;;;;;;;;;;;;;;5.91;85.85;99341.97;1687712;83;20111;-70
2022/02/11 10:27:25;;;;;;;;;;;;;;;5.94;86.67;99342.75;1665299;84;21082;-73
2022/02/11 10:29:55;;;;;;;;;;;;;;;6.00;86.60;99340.23;1702022;84;20121;-71
2022/02/11 10:32:43;;;;;;;;;;;;;;;6.03;86.28;99345.09;1707229;83;20178;-74
2022/02/11 10:35:14;;;;;;;;;;;;;;;5.94;85.90;99349.02;1703023;83;20235;-73
2022/02/11 10:38:06;;;;;;;;;;;;;;;5.87;86.43;99349.06;1697365;83;20122;-68
2022/02/11 10:40:34;;;;;;;;;;;;;;;5.81;86.53;99354.30;1697794;83;21158;-74
2022/02/11 10:43:01;;;;;;;;;;;;;;;5.78;86.81;99353.52;1693036;84;20426;-73
2022/02/11 10:45:37;;;;;;;;;;;;;;;5.77;88.00;99354.66;1692284;82;20167;-76
2022/02/11 10:48:17;;;;;;;;;;;;;;;5.75;87.50;99352.77;1692862;84;20138;-73
2022/02/11 10:51:01;;;;;;;;;;;;;;;5.77;87.72;99347.30;1693404;84;20088;-74
2022/02/11 10:53:30;;;;;;;;;;;;;;;5.92;88.04;99349.04;1693496;84;21159;-77
2022/02/11 10:55:58;;;;;;;;;;;;;;;6.12;88.45;99352.08;1687453;84;20086;-76
2022/02/11 10:58:25;;;;;;;;;;;;;;;6.25;87.46;99352.19;1693130;84;20180;-75
2022/02/11 11:00:52;;;;;;;;;;;;;;;6.33;86.80;99350.73;1695604;83;20448;-76
2022/02/11 11:03:18;;;;;;;;;;;;;;;6.33;85.88;99349.37;1694384;83;20203;-70
2022/02/11 11:05:45;;;;;;;;;;;;;;;6.33;86.77;99354.01;1690274;83;21149;-76
2022/02/11 11:08:13;;;;;;;;;;;;;;;6.32;85.86;99353.75;1690132;84;20141;-78
2022/02/11 11:10:42;;;;;;;;;;;;;;;6.29;86.11;99358.69;1690234;83;20502;-82
2022/02/11 11:13:13;;;;;;;;;;;;;;;6.32;86.00;99353.75;1685613;84;20151;-75
2022/02/11 11:15:42;;;;;;;;;;;;;;;6.33;86.40;99364.91;1679989;84;20147;-77
2022/02/11 11:18:10;;;;;;;;;;;;;;;6.31;86.06;99363.84;1679602;85;21368;-77
2022/02/11 11:20:39;;;;;;;;;;;;;;;6.29;85.97;99363.33;1679793;85;20438;-70
2022/02/11 11:23:24;;;;;;;;;;;;;;;6.28;85.97;99358.97;1680084;85;20116;-81
2022/02/11 11:26:01;;;;;;;;;;;;;;;6.27;86.48;99362.80;1687910;84;20465;-70
2022/02/11 11:28:49;;;;;;;;;;;;;;;6.24;85.84;99360.66;1692707;83;20134;-74
2022/02/11 11:31:26;;;;;;;;;;;;;;;6.21;85.65;99360.69;1680108;85;21138;-70
2022/02/11 11:34:13;;;;;;;;;;;;;;;6.14;85.68;99371.13;1679804;85;20136;-77
2022/02/11 11:36:45;;;;;;;;;;;;;;;6.10;85.75;99359.19;1693104;84;20183;-72
2022/02/11 11:39:12;;;;;;;;;;;;;;;6.06;85.35;99362.78;1696027;84;20189;-73
2022/02/11 11:41:39;;;;;;;;;;;;;;;5.99;85.77;99367.77;1693434;84;20630;-71
2022/02/11 11:44:18;;;;;;;;;;;;;;;5.94;86.67;99359.91;1670270;84;20440;-69
2022/02/11 11:46:56;;;;;;;;;;;;;;;5.93;85.88;99354.20;1682310;84;20126;-70
2022/02/11 11:49:26;;;;;;;;;;;;;;;5.89;85.84;99372.22;1682386;84;20435;-70
2022/02/11 11:51:54;;;;;;;;;;;;;;;5.89;85.97;99362.69;1722248;82;20083;-70
2022/02/11 11:54:24;;;;;;;;;;;;;;;5.91;86.89;99361.85;1715935;82;20435;-76
2022/02/11 11:56:56;;;;;;;;;;;;;;;5.95;85.99;99361.53;1709158;83;21957;-80
2022/02/11 11:59:46;;;;;;;;;;;;;;;5.99;86.00;99369.13;1709592;81;20119;-77
2022/02/11 12:02:20;;;;;;;;;;;;;;;6.06;86.06;99373.69;1732907;82;20130;-72
2022/02/11 12:04:50;;;;;;;;;;;;;;;6.11;85.53;99379.08;1737634;82;20432;-72
2022/02/11 12:07:18;;;;;;;;;;;;;;;6.10;85.22;99376.91;1737988;82;20157;-75
2022/02/11 12:09:47;;;;;;;;;;;;;;;6.12;85.16;99380.70;1731533;82;21069;-74
2022/02/11 12:12:13;;;;;;;;;;;;;;;6.09;85.18;99375.28;1721607;82;20099;-79
2022/02/11 12:14:41;;;;;;;;;;;;;;;6.05;84.53;99373.42;1709371;83;20123;-75
2022/02/11 12:17:09;;;;;;;;;;;;;;;5.99;84.52;99370.49;1708892;83;20385;-77
2022/02/11 12:19:36;;;;;;;;;;;;;;;5.91;84.67;99379.56;1709118;83;20104;-76
2022/02/11 12:22:05;;;;;;;;;;;;;;;5.91;84.62;99376.02;1709245;83;21116;-73
2022/02/11 12:27:24;;;;;;;;;;;;;;;5.89;83.84;99377.67;1703021;84;20152;-71
2022/02/11 12:29:52;;;;;;;;;;;;;;;5.90;84.04;99380.66;1709356;83;20107;-76
2022/02/11 12:32:19;;;;;;;;;;;;;;;5.94;84.43;99380.89;1709118;84;20422;-69
2022/02/11 12:34:48;;;;;;;;;;;;;;;5.99;83.86;99385.48;1716844;82;21145;-74
2022/02/11 12:37:16;;;;;;;;;;;;;;;6.02;83.34;99389.80;1724585;82;20419;-75
2022/02/11 12:39:43;;;;;;;;;;;;;;;6.05;83.11;99385.13;1722140;82;20081;-74
2022/02/11 12:42:09;;;;;;;;;;;;;;;6.09;83.33;99390.81;1719008;82;20176;-74
2022/02/11 12:44:35;;;;;;;;;;;;;;;6.08;82.45;99385.92;1721429;82;20158;-73
2022/02/11 12:47:02;;;;;;;;;;;;;;;6.08;82.53;99396.81;1737699;81;22154;-74
2022/02/11 12:49:30;;;;;;;;;;;;;;;6.07;82.16;99397.11;1760093;81;20430;-72
2022/02/11 12:51:57;;;;;;;;;;;;;;;6.11;83.86;99386.70;1746743;81;20093;-73
2022/02/11 12:54:24;;;;;;;;;;;;;;;6.21;82.42;99395.31;1738701;81;20591;-74
2022/02/11 12:57:00;;;;;;;;;;;;;;;6.28;81.36;99390.32;1734501;82;20095;-80
2022/02/11 12:59:26;;;;;;;;;;;;;;;6.35;81.50;99389.42;1738710;81;21901;-75
2022/02/11 13:01:52;;;;;;;;;;;;;;;6.42;82.41;99387.12;1752127;81;20088;-72
2022/02/11 13:04:22;;;;;;;;;;;;;;;6.58;81.06;99391.28;1734646;82;20421;-77
2022/02/11 13:06:48;;;;;;;;;;;;;;;6.63;80.26;99392.57;1734672;82;20163;-77
2022/02/11 13:09:18;;;;;;;;;;;;;;;6.60;80.09;99391.80;1735008;82;20164;-69
2022/02/11 13:11:45;;;;;;;;;;;;;;;6.58;80.10;99394.55;1735109;81;21025;-69
2022/02/11 13:14:12;;;;;;;;;;;;;;;6.51;79.53;99396.28;1734976;82;20089;-69
2022/02/11 13:16:38;;;;;;;;;;;;;;;6.44;79.53;99396.38;1735231;82;20131;-68
2022/02/11 13:19:13;;;;;;;;;;;;;;;6.37;78.92;99391.83;1734824;82;20107;-67
2022/02/11 13:21:41;;;;;;;;;;;;;;;6.28;79.13;99394.41;1758601;81;20117;-68
2022/02/11 13:24:07;;;;;;;;;;;;;;;6.22;79.10;99400.47;1765339;80;21165;-73
2022/02/11 13:26:34;;;;;;;;;;;;;;;6.15;79.47;99398.65;1764893;81;20585;-70
2022/02/11 13:29:13;;;;;;;;;;;;;;;6.14;79.47;99407.11;1748533;81;20157;-70
2022/02/11 13:31:48;;;;;;;;;;;;;;;6.20;78.40;99401.31;1749994;81;20235;-69
2022/02/11 13:34:15;;;;;;;;;;;;;;;6.26;77.82;99401.52;1721491;81;20153;-69
2022/02/11 13:36:48;;;;;;;;;;;;;;;6.33;77.70;99406.63;1756348;81;21147;-72
2022/02/11 13:39:10;;;;;;;;;;;;;;;6.32;76.90;99410.45;1755277;81;20115;-69
2022/02/11 13:41:38;;;;;;;;;;;;;;;6.29;76.74;99406.94;1743939;81;20071;-67
2022/02/11 13:44:10;;;;;;;;;;;;;;;6.56;76.74;99411.22;1764581;81;20421;-67
2022/02/11 13:46:42;;;;;;;;;;;;;;;7.03;75.16;99410.82;1766410;81;20853;-68
2022/02/11 13:49:20;;;;;;;;;;;;;;;7.10;72.98;99407.72;1772850;81;21164;-67
2022/02/11 13:54:59;;;;;;;;;;;;;;;6.86;72.82;99420.09;1750459;81;20104;-68
2022/02/11 13:57:30;;;;;;;;;;;;;;;7.20;72.94;99422.03;1765562;81;20729;-67
2022/02/11 14:00:25;;;;;;;;;;;;;;;7.61;71.27;99422.16;1753380;81;20147;-67
2022/02/11 14:02:49;;;;;;;;;;;;;;;8.04;71.06;99415.13;1733574;81;21162;-71
2022/02/11 14:05:21;;;;;;;;;;;;;;;8.12;67.57;99417.13;1705243;82;20083;-71
2022/02/11 14:07:55;;;;;;;;;;;;;;;7.83;66.00;99416.05;1733789;82;20147;-69
2022/02/11 14:10:23;;;;;;;;;;;;;;;7.44;68.31;99418.39;1734447;81;20568;-70
2022/02/11 14:13:08;;;;;;;;;;;;;;;7.09;67.93;99420.55;1734198;82;20155;-68
2022/02/11 14:15:51;;;;;;;;;;;;;;;6.77;68.82;99417.77;1738583;81;21256;-71
2022/02/11 14:18:06;;;;;;;;;;;;;;;6.48;69.78;99424.69;1757485;81;20110;-68
2022/02/11 14:20:39;;;;;;;;;;;;;;;6.24;71.12;99433.71;1758567;80;20139;-70
2022/02/11 14:23:22;;;;;;;;;;;;;;;6.07;71.50;99440.16;1747816;80;20168;-70
2022/02/11 14:25:49;;;;;;;;;;;;;;;5.88;71.65;99437.87;1746998;81;20258;-69
2022/02/11 14:28:17;;;;;;;;;;;;;;;5.67;72.15;99433.73;1747411;81;21968;-72
2022/02/11 14:30:45;;;;;;;;;;;;;;;5.52;73.01;99438.77;1747023;80;20151;-70
2022/02/11 14:33:11;;;;;;;;;;;;;;;5.40;73.22;99441.03;1704107;82;20175;-70
2022/02/11 14:35:38;;;;;;;;;;;;;;;5.29;73.49;99449.27;1710392;82;20657;-71
2022/02/11 14:38:05;;;;;;;;;;;;;;;5.19;73.87;99445.84;1718788;82;20197;-70
2022/02/11 14:40:35;;;;;;;;;;;;;;;5.09;74.38;99444.55;1712555;82;21537;-69
2022/02/11 14:43:04;;;;;;;;;;;;;;;4.96;74.75;99440.54;1717537;81;20643;-68
2022/02/11 14:45:31;;;;;;;;;;;;;;;4.84;75.12;99446.31;1746360;81;20183;-68
2022/02/11 14:47:57;;;;;;;;;;;;;;;4.69;75.46;99449.66;1747214;80;20180;-71
2022/02/11 14:50:24;;;;;;;;;;;;;;;4.60;75.98;99449.45;1747052;81;20207;-70
2022/02/11 14:52:50;;;;;;;;;;;;;;;4.46;76.07;99451.95;1747868;80;21644;-70
2022/02/11 14:55:16;;;;;;;;;;;;;;;4.34;76.51;99453.36;1747981;81;20127;-70
2022/02/11 14:57:43;;;;;;;;;;;;;;;4.23;76.68;99458.82;1747984;81;20199;-71
2022/02/11 15:00:11;;;;;;;;;;;;;;;4.15;76.87;99465.36;1745703;81;20279;-69
2022/02/11 15:02:37;;;;;;;;;;;;;;;4.10;77.13;99472.16;1720310;81;20175;-72
2022/02/11 15:05:04;;;;;;;;;;;;;;;4.03;77.48;99473.84;1749489;81;21258;-71
2022/02/11 15:07:32;;;;;;;;;;;;;;;4.00;77.70;99473.57;1753001;80;20127;-72
2022/02/11 15:09:59;;;;;;;;;;;;;;;3.95;78.04;99485.25;1754713;81;20146;-71
2022/02/11 15:12:25;;;;;;;;;;;;;;;3.88;78.57;99487.44;1755148;81;20520;-71
2022/02/11 15:14:51;;;;;;;;;;;;;;;3.80;78.82;99492.87;1754824;81;20144;-72
2022/02/11 15:17:17;;;;;;;;;;;;;;;3.74;79.21;99493.14;1754126;81;21765;-74
2022/02/11 15:19:45;;;;;;;;;;;;;;;3.71;79.98;99494.50;1747196;81;20081;-70
2022/02/11 15:22:13;;;;;;;;;;;;;;;3.68;79.91;99493.69;1742931;80;20123;-73
2022/02/11 15:24:43;;;;;;;;;;;;;;;3.62;79.97;99495.58;1734261;81;20088;-69
2022/02/11 15:27:07;;;;;;;;;;;;;;;3.55;80.03;99499.65;1734156;82;20092;-75
2022/02/11 15:29:34;;;;;;;;;;;;;;;3.46;80.35;99497.23;1738533;81;21144;-77
2022/02/11 15:32:00;;;;;;;;;;;;;;;3.37;80.81;99501.56;1748014;81;20151;-72
2022/02/11 15:34:26;;;;;;;;;;;;;;;3.27;80.90;99510.50;1734903;82;20485;-73
2022/02/11 15:36:52;;;;;;;;;;;;;;;3.16;81.11;99504.78;1745179;81;20974;-75
2022/02/11 15:39:18;;;;;;;;;;;;;;;3.01;81.06;99516.40;1764550;81;20093;-71
2022/02/11 15:41:45;;;;;;;;;;;;;;;2.83;81.41;99511.48;1764681;81;21135;-71
2022/02/11 15:44:13;;;;;;;;;;;;;;;2.67;81.68;99518.73;1758028;81;20120;-73
2022/02/11 15:46:41;;;;;;;;;;;;;;;2.56;82.85;99519.23;1764310;81;20113;-75
2022/02/11 15:49:08;;;;;;;;;;;;;;;2.47;83.27;99531.65;1764137;79;20738;-67
2022/02/11 15:51:34;;;;;;;;;;;;;;;2.39;83.46;99532.68;1730724;81;20476;-70
2022/02/11 15:54:02;;;;;;;;;;;;;;;2.29;83.50;99537.53;1764790;81;21720;-68
2022/02/11 15:56:29;;;;;;;;;;;;;;;2.16;83.64;99546.92;1716879;82;20509;-68
2022/02/11 15:58:55;;;;;;;;;;;;;;;2.03;84.00;99543.84;1726156;82;20176;-74
2022/02/11 16:01:21;;;;;;;;;;;;;;;1.90;84.25;99552.69;1733848;81;20132;-73
2022/02/11 16:03:48;;;;;;;;;;;;;;;1.76;84.45;99547.42;1734397;82;20111;-73
2022/02/11 16:06:14;;;;;;;;;;;;;;;1.64;84.75;99542.75;1734483;82;21139;-71
2022/02/11 16:08:41;;;;;;;;;;;;;;;1.52;85.20;99543.45;1734184;82;20124;-71
2022/02/11 16:11:07;;;;;;;;;;;;;;;1.39;85.61;99546.56;1742605;81;20407;-69
2022/02/11 16:13:33;;;;;;;;;;;;;;;1.26;86.24;99543.73;1757673;81;20647;-74
2022/02/11 16:15:59;;;;;;;;;;;;;;;1.18;87.09;99557.70;1744733;81;20112;-72
2022/02/11 16:18:26;;;;;;;;;;;;;;;1.09;87.35;99558.72;1750795;81;21439;-69
2022/02/11 16:20:54;;;;;;;;;;;;;;;1.00;87.65;99554.83;1753934;81;20074;-69
2022/02/11 16:23:23;;;;;;;;;;;;;;;0.92;88.07;99558.80;1764985;80;20120;-68
2022/02/11 16:25:52;;;;;;;;;;;;;;;0.85;88.81;99562.22;1743465;81;20729;-68
2022/02/11 16:28:19;;;;;;;;;;;;;;;0.80;89.62;99563.51;1755755;81;20105;-66
2022/02/11 16:30:46;;;;;;;;;;;;;;;0.74;89.71;99559.11;1744554;81;21130;-69
2022/02/11 16:33:13;;;;;;;;;;;;;;;0.66;89.78;99564.41;1739127;81;20127;-68
2022/02/11 16:35:43;;;;;;;;;;;;;;;0.60;89.98;99562.70;1735572;81;20151;-68
2022/02/11 16:38:10;;;;;;;;;;;;;;;0.53;90.19;99562.10;1733583;81;20501;-69
2022/02/11 16:40:37;;;;;;;;;;;;;;;0.49;90.58;99570.95;1734404;82;20116;-69
2022/02/11 16:43:04;;;;;;;;;;;;;;;0.44;90.77;99574.94;1733911;82;20502;-68
2022/02/11 16:45:34;;;;;;;;;;;;;;;0.38;90.93;99583.50;1734454;82;20119;-69
2022/02/11 16:48:03;;;;;;;;;;;;;;;0.33;91.28;99586.94;1723611;82;20474;-68
2022/02/11 16:50:30;;;;;;;;;;;;;;;0.30;91.70;99581.22;1703596;84;22007;-69